Terminal Aerodrome Forecast
Issued by NWS

Home | Current Version | Previous Version | Graphics & Text | Print | Product List | Glossary On
Versions: 1 2 3 4 5 6 7 8 9 10 11 12 13 14 15 16
000
FTUS43 KMPX 202300
TAFRNH
TAF
KRNH 202333Z 2100/2124 30012G19KT 6SM -SHRA BKN045 OVC080
     FM210200 30012KT P6SM SCT045 BKN100
     FM210800 30007KT P6SM BKN020
     FM211500 35010KT P6SM -RA OVC030
     FM211800 35012KT P6SM BKN040=

USA.gov is the U.S. government's official web portal to all federal, state and local government web resources and services.